createdAt,value
2022-09-28T04:27:07.078Z,0.00
2022-09-28T04:28:07.948Z,0.00
2022-09-28T04:29:08.957Z,0.00
2022-09-28T04:30:08.445Z,0.00
2022-09-28T04:31:07.959Z,0.00
2022-09-28T04:32:07.987Z,0.00
2022-09-28T04:33:08.445Z,0.00
2022-09-28T04:34:07.892Z,0.00
2022-09-28T04:35:07.897Z,0.00
2022-09-28T04:36:07.895Z,0.00
2022-09-28T04:37:07.894Z,0.00
2022-09-28T04:38:07.850Z,0.00
2022-09-28T04:39:07.834Z,0.00
2022-09-28T04:40:08.458Z,0.00
2022-09-28T04:41:07.826Z,0.00
2022-09-28T04:42:07.805Z,0.00
2022-09-28T04:43:07.801Z,0.00
2022-09-28T04:44:08.443Z,0.00
2022-09-28T04:45:07.793Z,0.00
2022-09-28T04:46:08.508Z,0.00
2022-09-28T04:47:07.757Z,0.00
2022-09-28T04:48:07.744Z,0.00
2022-09-28T04:49:07.722Z,0.00
2022-09-28T04:50:08.449Z,0.00
2022-09-28T04:51:07.731Z,0.00
2022-09-28T04:52:07.702Z,0.00
2022-09-28T04:53:07.700Z,0.00
2022-09-28T04:54:08.443Z,0.00
2022-09-28T04:55:07.668Z,0.00
2022-09-28T04:56:08.451Z,0.00
2022-09-28T04:57:07.677Z,0.00
2022-09-28T04:58:08.455Z,0.00
2022-09-28T04:59:08.459Z,0.00
2022-09-28T05:00:07.661Z,0.00
2022-09-28T05:01:08.502Z,0.00
2022-09-28T05:02:07.669Z,4.00
2022-09-28T05:03:07.581Z,0.00
2022-09-28T05:04:07.567Z,4.00
2022-09-28T05:05:07.548Z,4.00
2022-09-28T05:06:08.456Z,4.00
2022-09-28T05:07:07.566Z,4.00
2022-09-28T05:08:07.521Z,4.00
2022-09-28T05:09:07.492Z,8.00
2022-09-28T05:10:07.484Z,8.00
2022-09-28T05:11:08.452Z,12.00
2022-09-28T05:12:07.470Z,12.00
2022-09-28T05:13:08.446Z,12.00
2022-09-28T05:14:13.971Z,16.00
2022-09-28T05:15:07.988Z,20.00
2022-09-28T05:16:07.510Z,24.00
2022-09-28T05:17:08.915Z,20.00
2022-09-28T05:18:07.418Z,32.00
2022-09-28T05:19:07.400Z,40.00
2022-09-28T05:20:07.977Z,44.00
2022-09-28T05:21:08.010Z,52.00
2022-09-28T05:22:07.358Z,64.00
2022-09-28T05:23:07.332Z,72.00
2022-09-28T05:24:08.013Z,88.00
2022-09-28T05:25:07.326Z,88.00
2022-09-28T05:26:07.308Z,92.00
2022-09-28T05:27:13.927Z,100.00
2022-09-28T05:28:07.293Z,96.00
2022-09-28T05:29:08.016Z,100.00
2022-09-28T05:30:07.293Z,104.00
2022-09-28T05:31:08.009Z,92.00
2022-09-28T05:32:08.053Z,100.00
2022-09-28T05:33:07.999Z,112.00
2022-09-28T05:34:07.232Z,104.00
2022-09-28T05:35:07.206Z,128.00
2022-09-28T05:36:08.002Z,128.00
2022-09-28T05:37:07.184Z,120.00
2022-09-28T05:38:07.172Z,184.00
2022-09-28T05:39:10.459Z,204.00
2022-09-28T05:40:08.003Z,184.00
2022-09-28T05:41:07.284Z,232.00
2022-09-28T05:42:07.146Z,284.00
2022-09-28T05:43:07.996Z,308.00
2022-09-28T05:44:08.007Z,304.00
2022-09-28T05:45:07.100Z,332.00
2022-09-28T05:46:07.235Z,548.00
2022-09-28T05:47:07.067Z,600.00
2022-09-28T05:48:07.052Z,616.00
2022-09-28T05:49:07.989Z,656.00
2022-09-28T05:50:07.038Z,720.00
2022-09-28T05:51:07.042Z,732.00
2022-09-28T05:52:08.007Z,760.00
2022-09-28T05:53:07.496Z,800.00
2022-09-28T05:54:07.503Z,824.00
2022-09-28T05:55:06.967Z,852.00
2022-09-28T05:56:06.985Z,940.00
2022-09-28T05:57:13.787Z,1048.00
2022-09-28T05:58:07.014Z,1088.00
2022-09-28T05:59:06.926Z,1088.00
2022-09-28T06:00:06.931Z,1132.00
2022-09-28T06:01:07.609Z,1188.00
2022-09-28T06:02:07.565Z,1312.00
2022-09-28T06:03:09.121Z,1344.00
2022-09-28T06:04:07.536Z,1384.00
2022-09-28T06:05:06.854Z,1424.00
2022-09-28T06:06:06.859Z,1492.00
2022-09-28T06:07:06.848Z,1588.00
2022-09-28T06:08:06.825Z,1652.00
2022-09-28T06:09:06.822Z,1700.00
2022-09-28T06:10:07.534Z,1708.00
2022-09-28T06:11:06.790Z,1688.00
2022-09-28T06:12:06.780Z,1720.00
2022-09-28T06:13:06.779Z,1776.00
2022-09-28T06:14:07.532Z,1856.00
2022-09-28T06:15:06.762Z,1940.00
2022-09-28T06:16:06.766Z,1956.00
2022-09-28T06:17:06.791Z,1896.00
2022-09-28T06:18:06.707Z,1928.00
2022-09-28T06:19:07.542Z,1904.00
2022-09-28T06:20:07.547Z,1784.00
2022-09-28T06:21:06.718Z,1692.00
2022-09-28T06:22:06.705Z,1556.00
2022-09-28T06:23:07.527Z,1636.00
2022-09-28T06:24:06.660Z,1688.00
2022-09-28T06:25:06.637Z,1752.00
2022-09-28T06:26:06.625Z,1672.00
2022-09-28T06:27:06.617Z,1580.00
2022-09-28T06:28:07.591Z,1612.00
2022-09-28T06:29:06.613Z,1948.00
2022-09-28T06:30:07.557Z,2356.00
2022-09-28T06:31:07.626Z,2724.00
2022-09-28T06:32:06.557Z,2984.00
2022-09-28T06:33:06.566Z,3332.00
2022-09-28T06:34:07.042Z,3832.00
2022-09-28T06:35:07.049Z,3952.00
2022-09-28T06:36:06.535Z,3688.00
2022-09-28T06:37:06.543Z,3292.00
2022-09-28T06:38:07.043Z,2932.00
2022-09-28T06:39:08.021Z,2872.00
2022-09-28T06:40:06.495Z,3048.00
2022-09-28T06:41:06.474Z,3296.00
2022-09-28T06:42:06.450Z,3388.00
2022-09-28T06:43:07.044Z,3144.00
2022-09-28T06:44:06.444Z,2692.00
2022-09-28T06:45:07.047Z,2256.00
2022-09-28T06:46:07.135Z,1908.00
2022-09-28T06:47:07.067Z,1672.00
2022-09-28T06:48:07.057Z,1588.00
2022-09-28T06:49:07.060Z,1612.00
2022-09-28T06:50:07.048Z,1860.00
2022-09-28T06:51:06.340Z,2192.00
2022-09-28T06:52:07.036Z,2228.00
2022-09-28T06:53:06.329Z,2604.00
2022-09-28T06:54:07.367Z,3024.00
2022-09-28T06:55:06.314Z,3280.00
2022-09-28T06:56:06.314Z,3472.00
2022-09-28T06:57:06.315Z,4592.00
2022-09-28T06:58:06.524Z,3916.00
2022-09-28T06:59:06.305Z,3172.00
2022-09-28T07:00:06.253Z,2936.00
2022-09-28T07:01:07.082Z,2748.00
2022-09-28T07:02:06.284Z,2748.00
2022-09-28T07:03:06.227Z,3096.00
2022-09-28T07:04:06.211Z,3824.00
2022-09-28T07:05:06.180Z,4136.00
2022-09-28T07:06:06.285Z,4620.00
2022-09-28T07:07:06.193Z,4812.00
2022-09-28T07:08:06.189Z,4648.00
2022-09-28T07:09:25.175Z,3948.00
2022-09-28T07:10:06.966Z,4056.00
2022-09-28T07:11:07.046Z,4200.00
2022-09-28T07:12:06.116Z,3744.00
2022-09-28T07:13:08.092Z,3692.00
2022-09-28T07:14:07.542Z,3780.00
2022-09-28T07:15:07.065Z,3684.00
2022-09-28T07:16:06.113Z,3800.00
2022-09-28T07:17:13.700Z,4160.00
2022-09-28T07:18:06.837Z,4360.00
2022-09-28T07:19:06.274Z,4164.00
2022-09-28T07:20:16.572Z,3896.00
2022-09-28T07:21:06.155Z,3900.00
2022-09-28T07:22:06.014Z,4168.00
2022-09-28T07:23:17.574Z,4328.00
2022-09-28T07:24:06.026Z,4524.00
2022-09-28T07:25:06.558Z,4492.00
2022-09-28T07:26:08.578Z,4404.00
2022-09-28T07:27:08.475Z,4352.00
2022-09-28T07:28:05.937Z,4328.00
2022-09-28T07:29:05.938Z,4240.00
2022-09-28T07:30:05.957Z,4132.00
2022-09-28T07:31:06.868Z,4108.00
2022-09-28T07:32:05.935Z,4108.00
2022-09-28T07:33:05.883Z,4124.00
2022-09-28T07:34:05.873Z,4168.00
2022-09-28T07:35:06.624Z,4116.00
2022-09-28T07:36:06.561Z,4104.00
2022-09-28T07:37:06.550Z,4176.00
2022-09-28T07:38:05.814Z,4208.00
2022-09-28T07:39:05.821Z,4360.00
2022-09-28T07:40:07.283Z,4372.00
2022-09-28T07:41:06.594Z,4556.00
2022-09-28T07:42:06.559Z,4916.00
2022-09-28T07:43:06.564Z,5232.00
2022-09-28T07:44:05.787Z,5412.00
2022-09-28T07:45:06.556Z,5360.00
2022-09-28T07:46:05.860Z,5052.00
2022-09-28T07:47:05.776Z,4572.00
2022-09-28T07:48:06.610Z,4296.00
2022-09-28T07:49:08.436Z,4520.00
2022-09-28T07:50:05.724Z,4908.00
2022-09-28T07:51:05.690Z,5156.00
2022-09-28T07:52:06.840Z,5272.00
2022-09-28T07:53:06.561Z,5428.00
2022-09-28T07:54:05.644Z,6000.00
2022-09-28T07:55:07.392Z,6928.00
2022-09-28T07:56:06.562Z,7404.00
2022-09-28T07:57:09.429Z,6104.00
2022-09-28T07:58:06.560Z,4524.00
2022-09-28T07:59:05.586Z,3984.00
2022-09-28T08:00:05.584Z,3988.00
2022-09-28T08:01:56.981Z,4112.00
2022-09-28T08:02:56.505Z,4316.00
2022-09-28T08:03:56.401Z,5360.00
2022-09-28T08:04:59.730Z,5848.00
2022-09-28T08:05:56.269Z,5836.00
2022-09-28T08:06:56.245Z,6004.00
2022-09-28T08:07:56.252Z,5380.00
2022-09-28T08:08:56.233Z,4188.00
2022-09-28T08:09:56.784Z,3892.00
2022-09-28T08:10:58.984Z,4456.00
2022-09-28T08:11:56.194Z,4660.00
2022-09-28T08:12:59.178Z,4692.00
2022-09-28T08:13:56.768Z,4708.00
2022-09-28T08:14:56.766Z,4880.00
2022-09-28T08:15:56.185Z,5420.00
2022-09-28T08:16:56.138Z,5840.00
2022-09-28T08:18:00.501Z,5812.00
2022-09-28T08:18:56.124Z,5724.00
2022-09-28T08:19:56.110Z,5908.00
2022-09-28T08:20:56.095Z,6568.00
2022-09-28T08:21:56.099Z,7352.00
2022-09-28T08:22:56.123Z,7612.00
2022-09-28T08:23:56.070Z,8004.00
2022-09-28T08:24:56.794Z,9056.00
2022-09-28T08:25:56.038Z,10972.00
2022-09-28T08:26:56.027Z,12948.00
2022-09-28T08:27:56.635Z,14004.00
2022-09-28T08:28:56.001Z,14072.00
2022-09-28T08:29:55.994Z,13184.00
2022-09-28T08:30:56.036Z,10876.00
2022-09-28T08:31:59.520Z,9364.00
2022-09-28T08:32:56.021Z,8656.00
2022-09-28T08:33:55.948Z,8080.00
2022-09-28T08:34:55.934Z,7804.00
2022-09-28T08:35:55.932Z,8492.00
2022-09-28T08:36:55.904Z,9776.00
2022-09-28T08:37:55.911Z,10544.00
2022-09-28T08:38:55.892Z,9404.00
2022-09-28T08:39:55.871Z,8296.00
2022-09-28T08:40:55.935Z,7960.00
2022-09-28T08:41:55.876Z,7348.00
2022-09-28T08:42:55.847Z,6680.00
2022-09-28T08:43:55.823Z,7240.00
2022-09-28T08:44:55.809Z,8032.00
2022-09-28T08:45:55.833Z,8356.00
2022-09-28T08:46:55.810Z,7012.00
2022-09-28T08:47:56.780Z,6548.00
2022-09-28T08:49:20.679Z,6988.00
2022-09-28T08:50:56.914Z,6964.00
2022-09-28T08:51:55.734Z,7508.00
2022-09-28T08:52:55.738Z,8920.00
2022-09-28T08:53:55.753Z,9096.00
2022-09-28T08:54:58.476Z,8372.00
2022-09-28T08:55:55.706Z,8096.00
2022-09-28T08:56:55.705Z,8336.00
2022-09-28T08:57:55.668Z,8832.00
2022-09-28T08:58:55.708Z,9776.00
2022-09-28T08:59:55.664Z,10408.00
2022-09-28T09:00:55.723Z,10660.00
2022-09-28T09:01:57.676Z,11104.00
2022-09-28T09:02:55.713Z,11528.00
2022-09-28T09:03:55.656Z,11372.00
2022-09-28T09:04:55.605Z,10520.00
2022-09-28T09:05:55.605Z,10032.00
2022-09-28T09:06:55.600Z,10012.00
2022-09-28T09:07:55.561Z,9832.00
2022-09-28T09:08:55.556Z,9608.00
2022-09-28T09:09:55.555Z,10968.00
2022-09-28T09:10:55.532Z,13104.00
2022-09-28T09:11:55.526Z,14976.00
2022-09-28T09:12:55.518Z,16868.00
2022-09-28T09:13:55.523Z,16608.00
2022-09-28T09:14:55.492Z,15320.00
2022-09-28T09:15:55.491Z,15208.00
2022-09-28T09:16:57.492Z,14848.00
2022-09-28T09:17:55.445Z,12588.00
2022-09-28T09:18:55.450Z,10216.00
2022-09-28T09:19:55.426Z,8116.00
2022-09-28T09:20:55.444Z,6300.00
2022-09-28T09:21:55.635Z,5400.00
2022-09-28T09:22:55.397Z,5616.00
2022-09-28T09:23:56.518Z,7000.00
2022-09-28T09:24:55.597Z,8072.00
2022-09-28T09:25:55.382Z,9132.00
2022-09-28T09:26:55.580Z,10048.00
2022-09-28T09:27:55.356Z,11164.00
2022-09-28T09:28:55.343Z,11380.00
2022-09-28T09:29:56.321Z,10780.00
2022-09-28T09:30:55.407Z,9692.00
2022-09-28T09:31:55.364Z,8164.00
2022-09-28T09:32:55.343Z,7568.00
2022-09-28T09:33:55.281Z,8592.00
2022-09-28T09:34:55.357Z,9968.00
2022-09-28T09:35:55.286Z,10796.00
2022-09-28T09:36:55.249Z,10172.00
2022-09-28T09:37:58.318Z,10884.00
2022-09-28T09:38:55.232Z,11412.00
2022-09-28T09:39:55.253Z,10016.00
2022-09-28T09:41:01.948Z,9168.00
2022-09-28T09:41:55.239Z,8928.00
2022-09-28T09:42:55.193Z,8628.00
2022-09-28T09:43:55.202Z,9432.00
2022-09-28T09:44:55.148Z,11756.00
2022-09-28T09:45:55.187Z,14180.00
2022-09-28T09:46:55.127Z,15788.00
2022-09-28T09:47:55.131Z,16676.00
2022-09-28T09:48:55.123Z,16596.00
2022-09-28T09:49:55.128Z,19552.00
2022-09-28T09:50:55.087Z,23328.00
2022-09-28T09:51:55.132Z,24096.00
2022-09-28T09:52:56.220Z,22880.00
2022-09-28T09:53:55.074Z,20416.00
2022-09-28T09:54:55.047Z,19520.00
2022-09-28T09:55:55.139Z,19808.00
2022-09-28T09:56:55.020Z,19712.00
2022-09-28T09:57:55.059Z,20128.00
2022-09-28T09:58:55.009Z,26720.00
2022-09-28T09:59:54.981Z,20160.00
2022-09-28T10:00:55.995Z,28480.00
2022-09-28T10:01:54.973Z,25024.00
2022-09-28T10:02:55.045Z,30912.00
2022-09-28T10:03:54.946Z,47104.00
2022-09-28T10:04:54.975Z,61024.00
2022-09-28T10:05:55.061Z,32384.00
2022-09-28T10:06:55.321Z,29120.00
2022-09-28T10:07:55.807Z,17952.00
2022-09-28T10:08:55.786Z,17152.00
2022-09-28T10:09:55.394Z,16312.00
2022-09-28T10:10:54.864Z,16576.00
2022-09-28T10:11:55.800Z,15724.00
2022-09-28T10:12:54.851Z,13740.00
2022-09-28T10:13:55.083Z,12316.00
2022-09-28T10:14:54.826Z,11892.00
2022-09-28T10:15:54.805Z,11624.00
2022-09-28T10:16:54.869Z,11240.00
2022-09-28T10:17:55.033Z,11284.00
2022-09-28T10:18:54.799Z,13220.00
2022-09-28T10:19:54.753Z,15884.00
2022-09-28T10:20:54.772Z,19104.00
2022-09-28T10:21:54.746Z,19968.00
2022-09-28T10:22:54.718Z,20256.00
2022-09-28T10:23:54.752Z,18784.00
2022-09-28T10:24:54.746Z,17856.00
2022-09-28T10:25:54.691Z,17984.00
2022-09-28T10:27:01.245Z,17440.00
2022-09-28T10:27:54.768Z,16100.00
2022-09-28T10:28:54.922Z,12980.00
2022-09-28T10:29:54.693Z,9252.00
2022-09-28T10:30:54.764Z,8384.00
2022-09-28T10:31:54.641Z,10128.00
2022-09-28T10:32:54.920Z,12892.00
2022-09-28T10:33:54.617Z,14608.00
2022-09-28T10:34:54.597Z,14768.00
2022-09-28T10:35:54.605Z,13648.00
2022-09-28T10:36:54.624Z,12872.00
2022-09-28T10:37:54.577Z,13812.00
2022-09-28T10:38:54.571Z,15536.00
2022-09-28T10:39:54.541Z,15828.00
2022-09-28T10:40:54.636Z,15712.00
2022-09-28T10:41:54.555Z,15700.00
2022-09-28T10:42:54.498Z,16040.00
2022-09-28T10:43:58.081Z,16120.00
2022-09-28T10:44:54.475Z,15016.00
2022-09-28T10:45:54.560Z,13640.00
2022-09-28T10:46:54.450Z,12400.00
2022-09-28T10:47:54.702Z,11144.00
2022-09-28T10:48:54.481Z,10048.00
2022-09-28T10:49:57.333Z,9164.00
2022-09-28T10:50:54.477Z,8596.00
2022-09-28T10:51:54.417Z,8332.00
2022-09-28T10:52:54.427Z,7732.00
2022-09-28T10:53:54.394Z,7160.00
2022-09-28T10:54:54.384Z,6980.00
2022-09-28T10:55:54.383Z,6908.00
2022-09-28T10:56:54.392Z,6808.00
2022-09-28T10:57:54.349Z,6604.00
2022-09-28T10:58:54.345Z,6472.00
2022-09-28T10:59:54.361Z,6176.00
2022-09-28T11:00:54.345Z,5756.00
2022-09-28T11:01:54.321Z,5776.00
2022-09-28T11:02:54.322Z,6064.00
2022-09-28T11:03:54.477Z,7156.00
2022-09-28T11:04:54.314Z,8716.00
2022-09-28T11:05:54.271Z,10212.00
2022-09-28T11:06:54.292Z,11196.00
2022-09-28T11:07:54.338Z,13120.00
2022-09-28T11:08:54.225Z,15616.00
2022-09-28T11:09:54.221Z,17952.00
2022-09-28T11:10:54.210Z,19072.00
2022-09-28T11:11:54.272Z,19904.00
2022-09-28T11:12:54.187Z,20960.00
2022-09-28T11:13:54.179Z,23936.00
2022-09-28T11:14:54.137Z,25088.00
2022-09-28T11:15:54.166Z,40064.00
2022-09-28T11:16:54.262Z,54112.00
2022-09-28T11:17:54.159Z,50080.00
2022-09-28T11:18:54.121Z,51104.00
2022-09-28T11:19:54.116Z,50304.00
2022-09-28T11:20:54.096Z,38176.00
2022-09-28T11:21:54.086Z,24064.00
2022-09-28T11:22:54.102Z,52864.00
2022-09-28T11:23:54.068Z,24096.00
2022-09-28T11:24:54.063Z,19616.00
2022-09-28T11:25:54.040Z,16384.00
2022-09-28T11:27:00.633Z,31168.00
2022-09-28T11:27:54.034Z,29152.00
2022-09-28T11:28:54.004Z,52672.00
2022-09-28T11:29:53.980Z,45280.00
2022-09-28T11:30:54.111Z,47680.00
2022-09-28T11:31:53.978Z,54752.00
2022-09-28T11:32:53.982Z,31488.00
2022-09-28T11:33:53.977Z,56288.00
2022-09-28T11:34:59.504Z,57344.00
2022-09-28T11:35:54.144Z,57248.00
2022-09-28T11:36:57.322Z,34048.00
2022-09-28T11:37:54.818Z,40960.00
2022-09-28T11:38:53.940Z,64032.00
2022-09-28T11:39:53.866Z,61888.00
2022-09-28T11:40:54.149Z,59872.00
2022-09-28T11:41:53.897Z,60064.00
2022-09-28T11:42:53.896Z,19680.00
2022-09-28T11:43:53.823Z,15772.00
2022-09-28T11:44:53.835Z,18208.00
2022-09-28T11:45:53.879Z,21280.00
2022-09-28T11:46:53.828Z,20064.00
2022-09-28T11:47:57.860Z,19488.00
2022-09-28T11:48:53.789Z,18528.00
2022-09-28T11:49:53.783Z,19008.00
2022-09-28T11:50:53.768Z,20832.00
2022-09-28T11:51:53.755Z,27008.00
2022-09-28T11:52:53.740Z,55456.00
2022-09-28T11:53:53.720Z,35168.00
2022-09-28T11:54:53.738Z,23968.00
2022-09-28T11:55:53.705Z,17248.00
2022-09-28T11:56:53.699Z,13708.00
2022-09-28T11:57:53.679Z,11924.00
2022-09-28T11:58:53.691Z,10736.00
2022-09-28T11:59:53.737Z,9408.00
2022-09-28T12:00:54.395Z,7848.00
2022-09-28T12:01:53.678Z,6492.00
2022-09-28T12:02:53.728Z,5076.00
2022-09-28T12:03:53.848Z,4216.00
2022-09-28T12:04:53.607Z,3988.00
2022-09-28T12:05:53.610Z,4032.00
2022-09-28T12:06:53.608Z,4020.00
2022-09-28T12:07:53.590Z,3744.00
2022-09-28T12:08:53.561Z,3096.00
2022-09-28T12:09:53.600Z,2556.00
2022-09-28T12:10:53.541Z,2428.00
2022-09-28T12:11:53.530Z,2696.00
2022-09-28T12:12:53.516Z,3428.00
2022-09-28T12:13:53.493Z,4456.00
2022-09-28T12:14:53.492Z,5528.00
2022-09-28T12:16:23.061Z,6396.00
2022-09-28T12:17:05.705Z,7152.00
2022-09-28T12:17:53.549Z,7776.00
2022-09-28T12:18:53.526Z,8184.00
2022-09-28T12:19:53.479Z,8116.00
2022-09-28T12:20:53.429Z,7596.00
2022-09-28T12:21:54.398Z,7152.00
2022-09-28T12:22:55.442Z,6824.00
2022-09-28T12:23:57.421Z,6264.00
2022-09-28T12:24:53.382Z,5828.00
2022-09-28T12:25:53.411Z,6252.00
2022-09-28T12:26:53.360Z,7384.00
2022-09-28T12:27:54.583Z,8740.00
2022-09-28T12:28:53.360Z,10356.00
2022-09-28T12:29:53.319Z,11524.00
2022-09-28T12:30:54.731Z,12228.00
2022-09-28T12:31:53.294Z,12996.00
2022-09-28T12:32:53.297Z,11456.00
2022-09-28T12:33:53.311Z,10984.00
2022-09-28T12:34:53.299Z,10952.00
2022-09-28T12:35:53.263Z,11424.00
2022-09-28T12:36:53.233Z,12204.00
2022-09-28T12:37:54.574Z,12972.00
2022-09-28T12:39:14.668Z,13408.00
2022-09-28T12:39:57.957Z,13516.00
2022-09-28T12:40:53.350Z,12884.00
2022-09-28T12:41:53.186Z,12112.00
2022-09-28T12:42:53.200Z,11572.00
2022-09-28T12:43:53.165Z,12120.00
2022-09-28T12:44:58.565Z,11068.00
2022-09-28T12:46:11.157Z,10700.00
2022-09-28T12:46:53.224Z,10908.00
2022-09-28T12:47:53.125Z,11084.00
2022-09-28T12:49:36.711Z,10988.00
2022-09-28T12:50:37.584Z,10660.00
2022-09-28T12:50:57.355Z,10436.00
2022-09-28T12:51:53.064Z,10484.00
2022-09-28T12:52:53.070Z,11076.00
2022-09-28T12:53:53.075Z,11840.00
2022-09-28T12:54:53.040Z,12308.00
2022-09-28T12:55:53.034Z,12344.00
2022-09-28T12:56:53.008Z,11812.00
2022-09-28T12:57:53.007Z,11084.00
2022-09-28T12:58:53.011Z,10456.00
2022-09-28T12:59:53.193Z,9928.00
2022-09-28T13:00:52.957Z,9552.00
2022-09-28T13:01:53.016Z,9504.00
2022-09-28T13:02:53.973Z,9856.00
2022-09-28T13:03:52.971Z,10296.00
2022-09-28T13:04:52.929Z,10516.00
2022-09-28T13:05:52.926Z,10420.00
2022-09-28T13:06:52.903Z,10084.00
2022-09-28T13:07:52.920Z,9624.00
2022-09-28T13:08:52.877Z,8984.00
2022-09-28T13:09:52.930Z,8132.00
2022-09-28T13:10:53.755Z,7036.00
2022-09-28T13:11:55.548Z,6068.00
2022-09-28T13:12:52.834Z,5732.00
2022-09-28T13:13:52.830Z,5748.00
2022-09-28T13:14:52.827Z,5956.00
2022-09-28T13:15:52.882Z,6284.00
2022-09-28T13:16:56.109Z,6376.00
2022-09-28T13:17:52.778Z,6232.00
2022-09-28T13:18:52.801Z,6024.00
2022-09-28T13:19:52.754Z,6228.00
2022-09-28T13:20:52.746Z,6476.00
2022-09-28T13:21:52.760Z,6480.00
2022-09-28T13:22:52.739Z,6400.00
2022-09-28T13:23:57.913Z,6504.00
2022-09-28T13:24:52.710Z,6696.00
2022-09-28T13:25:53.423Z,6988.00
2022-09-28T13:26:52.672Z,7268.00
2022-09-28T13:27:57.031Z,7448.00
2022-09-28T13:28:54.215Z,7476.00
2022-09-28T13:29:55.680Z,7476.00
2022-09-28T13:30:52.725Z,7496.00
2022-09-28T13:31:54.023Z,7548.00
2022-09-28T13:32:52.623Z,7632.00
2022-09-28T13:33:55.551Z,7764.00
2022-09-28T13:34:52.618Z,7920.00
2022-09-28T13:35:53.423Z,7996.00
2022-09-28T13:36:52.569Z,7948.00
2022-09-28T13:37:52.553Z,7744.00
2022-09-28T13:38:55.795Z,7468.00
2022-09-28T13:39:52.546Z,7172.00
2022-09-28T13:40:52.549Z,6864.00
2022-09-28T13:41:53.421Z,6624.00
2022-09-28T13:42:52.556Z,6468.00
2022-09-28T13:43:53.435Z,6500.00
2022-09-28T13:44:52.502Z,6544.00
2022-09-28T13:45:52.520Z,6548.00
2022-09-28T13:46:52.457Z,6516.00
2022-09-28T13:47:52.464Z,6560.00
2022-09-28T13:48:52.436Z,6740.00
2022-09-28T13:49:56.156Z,6844.00
2022-09-28T13:50:54.581Z,6784.00
2022-09-28T13:51:52.397Z,6424.00
2022-09-28T13:52:52.754Z,6200.00
2022-09-28T13:53:52.391Z,6224.00
2022-09-28T13:54:52.371Z,6212.00
2022-09-28T13:55:52.346Z,6200.00
2022-09-28T13:56:52.344Z,6364.00
2022-09-28T13:57:52.324Z,6456.00
2022-09-28T13:58:52.312Z,6544.00
2022-09-28T13:59:52.325Z,6540.00
2022-09-28T14:00:52.320Z,6456.00
2022-09-28T14:01:52.370Z,6500.00
2022-09-28T14:02:52.349Z,6916.00
2022-09-28T14:03:52.277Z,7468.00
2022-09-28T14:04:52.270Z,7604.00
2022-09-28T14:05:52.302Z,7176.00
2022-09-28T14:06:54.834Z,7036.00
2022-09-28T14:07:55.283Z,7540.00
2022-09-28T14:08:52.212Z,8328.00
2022-09-28T14:09:52.261Z,9072.00
2022-09-28T14:10:52.281Z,9804.00
2022-09-28T14:11:52.213Z,10268.00
2022-09-28T14:12:52.203Z,10324.00
2022-09-28T14:13:52.204Z,10392.00
2022-09-28T14:14:52.148Z,10864.00
2022-09-28T14:15:52.212Z,11452.00
2022-09-28T14:16:52.135Z,11956.00
2022-09-28T14:17:52.107Z,12048.00
2022-09-28T14:18:52.131Z,11988.00
2022-09-28T14:19:52.083Z,11360.00
2022-09-28T14:20:52.108Z,10808.00
2022-09-28T14:21:52.067Z,10284.00
2022-09-28T14:22:52.067Z,9816.00
2022-09-28T14:23:55.144Z,9448.00
2022-09-28T14:24:52.043Z,9352.00
2022-09-28T14:25:52.022Z,9588.00
2022-09-28T14:26:52.014Z,9972.00
2022-09-28T14:27:52.007Z,10272.00
2022-09-28T14:28:52.014Z,10424.00
2022-09-28T14:29:51.994Z,10508.00
2022-09-28T14:30:52.084Z,10560.00
2022-09-28T14:31:51.963Z,10540.00
2022-09-28T14:32:51.968Z,10712.00
2022-09-28T14:33:51.956Z,11072.00
2022-09-28T14:34:51.930Z,11548.00
2022-09-28T14:35:51.940Z,12156.00
2022-09-28T14:36:51.927Z,12916.00
2022-09-28T14:37:51.885Z,14276.00
2022-09-28T14:38:51.876Z,17312.00
2022-09-28T14:39:51.871Z,16704.00
2022-09-28T14:40:51.895Z,19328.00
2022-09-28T14:41:51.849Z,16384.00
2022-09-28T14:43:51.828Z,16448.00
2022-09-28T14:44:51.896Z,17632.00
2022-09-28T14:45:51.894Z,17664.00
2022-09-28T14:46:51.799Z,16832.00
2022-09-28T14:47:51.785Z,16576.00
2022-09-28T14:48:51.776Z,16704.00
2022-09-28T14:49:51.779Z,17696.00
2022-09-28T14:50:51.787Z,18144.00
2022-09-28T14:51:51.733Z,18912.00
2022-09-28T14:52:51.739Z,22848.00
2022-09-28T14:53:51.834Z,19200.00
2022-09-28T14:54:51.723Z,19776.00
2022-09-28T14:55:51.713Z,16544.00
2022-09-28T14:56:51.699Z,18176.00
2022-09-28T14:57:51.692Z,14992.00
2022-09-28T14:58:51.733Z,15124.00
2022-09-28T14:59:51.694Z,12860.00
2022-09-28T15:00:51.677Z,12164.00
2022-09-28T15:01:51.625Z,12160.00
2022-09-28T15:02:51.637Z,11664.00
2022-09-28T15:03:51.686Z,10664.00
2022-09-28T15:04:51.795Z,9772.00
2022-09-28T15:05:51.659Z,9132.00
2022-09-28T15:06:51.587Z,8688.00
2022-09-28T15:07:51.583Z,8092.00
2022-09-28T15:08:51.580Z,6904.00
2022-09-28T15:09:51.553Z,5792.00
2022-09-28T15:10:51.545Z,5648.00
2022-09-28T15:11:51.531Z,5592.00
2022-09-28T15:12:51.499Z,5600.00
2022-09-28T15:13:51.517Z,5552.00
2022-09-28T15:14:51.509Z,5992.00
2022-09-28T15:15:51.616Z,4680.00
2022-09-28T15:16:51.473Z,3828.00
2022-09-28T15:17:51.503Z,3588.00
2022-09-28T15:18:51.468Z,3384.00
2022-09-28T15:19:51.426Z,3272.00
2022-09-28T15:20:51.411Z,3528.00
2022-09-28T15:21:51.414Z,3848.00
2022-09-28T15:22:51.411Z,4548.00
2022-09-28T15:23:51.384Z,5392.00
2022-09-28T15:24:51.385Z,5860.00
2022-09-28T15:25:51.401Z,6132.00
2022-09-28T15:26:51.355Z,6392.00
2022-09-28T15:27:51.359Z,6368.00
2022-09-28T15:28:51.353Z,6228.00
2022-09-28T15:29:51.337Z,6028.00
2022-09-28T15:30:51.416Z,5916.00
2022-09-28T15:31:54.459Z,5868.00
2022-09-28T15:32:51.303Z,5892.00
2022-09-28T15:33:51.382Z,5924.00
2022-09-28T15:34:51.300Z,6012.00
2022-09-28T15:35:51.260Z,6112.00
2022-09-28T15:36:51.235Z,6228.00
2022-09-28T15:37:51.218Z,6384.00
2022-09-28T15:38:51.220Z,6532.00
2022-09-28T15:39:51.255Z,6540.00
2022-09-28T15:40:51.286Z,6388.00
2022-09-28T15:41:51.215Z,6164.00
2022-09-28T15:42:52.509Z,5840.00
2022-09-28T15:43:51.173Z,5428.00
2022-09-28T15:44:51.152Z,5044.00
2022-09-28T15:45:51.180Z,4724.00
2022-09-28T15:46:51.179Z,4472.00
2022-09-28T15:47:51.159Z,4260.00
2022-09-28T15:48:51.126Z,4052.00
2022-09-28T15:49:51.097Z,3828.00
2022-09-28T15:50:51.079Z,3552.00
2022-09-28T15:51:51.064Z,3308.00
2022-09-28T15:52:51.063Z,3096.00
2022-09-28T15:53:51.089Z,2976.00
2022-09-28T15:54:51.024Z,2912.00
2022-09-28T15:55:51.046Z,2860.00
2022-09-28T15:56:51.019Z,2864.00
2022-09-28T15:57:51.027Z,2892.00
2022-09-28T15:58:51.039Z,2884.00
2022-09-28T15:59:50.991Z,2868.00
2022-09-28T16:00:50.988Z,2816.00
2022-09-28T16:01:51.014Z,2900.00
2022-09-28T16:02:51.006Z,3176.00
2022-09-28T16:03:50.933Z,3164.00
2022-09-28T16:04:50.945Z,2852.00
2022-09-28T16:05:50.975Z,2508.00
2022-09-28T16:06:50.892Z,2048.00
2022-09-28T16:07:55.252Z,1560.00
2022-09-28T16:08:50.887Z,1244.00
2022-09-28T16:09:50.861Z,912.00
2022-09-28T16:10:50.876Z,660.00
2022-09-28T16:11:50.882Z,452.00
2022-09-28T16:12:50.853Z,312.00
2022-09-28T16:13:50.833Z,260.00
2022-09-28T16:14:50.842Z,268.00
2022-09-28T16:15:50.870Z,344.00
2022-09-28T16:16:50.801Z,424.00
2022-09-28T16:17:51.884Z,452.00
2022-09-28T16:18:50.792Z,424.00
2022-09-28T16:19:50.801Z,376.00
2022-09-28T16:20:50.749Z,320.00
2022-09-28T16:21:50.749Z,284.00
2022-09-28T16:22:50.723Z,248.00
2022-09-28T16:23:50.703Z,232.00
2022-09-28T16:24:50.701Z,244.00
2022-09-28T16:25:50.694Z,276.00
2022-09-28T16:26:57.208Z,300.00
2022-09-28T16:27:50.671Z,316.00
2022-09-28T16:28:50.662Z,328.00
2022-09-28T16:29:50.652Z,336.00
2022-09-28T16:30:50.667Z,352.00
2022-09-28T16:31:50.627Z,372.00
2022-09-28T16:32:50.638Z,404.00
2022-09-28T16:33:50.592Z,452.00
2022-09-28T16:34:50.610Z,520.00